createdAt,value
2022-11-06T00:01:37.092Z,3.80
2022-11-06T00:04:09.377Z,3.70
2022-11-06T00:06:50.119Z,3.70
2022-11-06T00:09:22.180Z,3.70
2022-11-06T00:11:54.190Z,3.70
2022-11-06T00:14:27.219Z,3.70
2022-11-06T00:17:32.485Z,3.70
2022-11-06T00:20:06.216Z,3.70
2022-11-06T00:22:39.252Z,3.80
2022-11-06T00:25:11.258Z,3.80
2022-11-06T00:27:43.844Z,3.90
2022-11-06T00:30:16.366Z,3.80
2022-11-06T00:32:50.521Z,3.90
2022-11-06T00:35:22.513Z,3.90
2022-11-06T00:37:54.731Z,3.90
2022-11-06T00:40:27.013Z,3.90
2022-11-06T00:42:59.222Z,3.80
2022-11-06T00:45:31.179Z,3.80
2022-11-06T00:48:03.146Z,3.80
2022-11-06T00:50:35.463Z,3.70
2022-11-06T00:53:08.141Z,3.70
2022-11-06T00:55:40.291Z,3.70
2022-11-06T00:58:12.622Z,3.70
2022-11-06T01:00:44.866Z,3.70
2022-11-06T01:03:17.177Z,3.60
2022-11-06T01:05:49.134Z,3.60
2022-11-06T01:08:21.129Z,3.60
2022-11-06T01:10:53.016Z,3.60
2022-11-06T01:13:24.974Z,3.60
2022-11-06T01:15:56.905Z,3.60
2022-11-06T01:18:29.088Z,3.50
2022-11-06T01:21:05.520Z,3.50
2022-11-06T01:23:39.641Z,3.50
2022-11-06T01:26:13.832Z,3.50
2022-11-06T01:28:45.874Z,3.50
2022-11-06T01:31:21.062Z,3.40
2022-11-06T01:33:57.175Z,3.40
2022-11-06T01:36:30.811Z,3.40
2022-11-06T01:39:07.220Z,3.40
2022-11-06T01:41:50.178Z,3.30
2022-11-06T01:44:35.772Z,3.30
2022-11-06T01:47:29.474Z,3.30
2022-11-06T01:50:05.754Z,3.30
2022-11-06T01:52:39.536Z,3.20
2022-11-06T01:55:19.094Z,3.20
2022-11-06T01:57:57.665Z,3.10
2022-11-06T02:00:32.545Z,3.20
2022-11-06T02:03:04.877Z,3.10
2022-11-06T02:05:37.474Z,3.20
2022-11-06T02:08:14.458Z,3.10
2022-11-06T02:10:51.138Z,3.10
2022-11-06T02:13:36.098Z,3.10
2022-11-06T02:16:34.008Z,3.10
2022-11-06T02:19:53.442Z,3.10
2022-11-06T02:23:16.664Z,3.10
2022-11-06T02:26:37.734Z,3.10
2022-11-06T02:30:10.497Z,3.10
2022-11-06T02:32:54.407Z,3.10
2022-11-06T02:35:36.048Z,3.10
2022-11-06T02:38:37.493Z,3.10
2022-11-06T02:41:21.246Z,3.10
2022-11-06T02:43:57.499Z,3.10
2022-11-06T02:46:45.306Z,3.10
2022-11-06T02:49:30.006Z,3.10
2022-11-06T02:52:14.048Z,3.10
2022-11-06T02:55:14.252Z,3.10
2022-11-06T02:58:01.055Z,3.10
2022-11-06T03:00:41.604Z,3.20
2022-11-06T03:03:34.149Z,3.20
2022-11-06T03:06:13.986Z,3.20
2022-11-06T03:09:07.497Z,3.20
2022-11-06T03:11:50.804Z,3.20
2022-11-06T03:14:43.077Z,3.20
2022-11-06T03:17:50.652Z,3.20
2022-11-06T03:20:43.586Z,3.10
2022-11-06T03:23:38.531Z,3.10
2022-11-06T03:26:20.980Z,3.10
2022-11-06T03:29:39.742Z,3.10
2022-11-06T03:32:26.582Z,3.10
2022-11-06T03:35:19.649Z,3.00
2022-11-06T03:38:36.066Z,3.00
2022-11-06T03:41:30.538Z,2.90
2022-11-06T03:44:11.410Z,2.90
2022-11-06T03:46:55.403Z,2.90
2022-11-06T03:49:43.212Z,2.90
2022-11-06T03:52:56.258Z,2.90
2022-11-06T03:55:48.167Z,2.90
2022-11-06T03:58:32.443Z,2.90
2022-11-06T04:01:11.092Z,2.90
2022-11-06T04:04:07.044Z,2.90
2022-11-06T04:07:05.852Z,2.80
2022-11-06T04:10:07.894Z,2.80
2022-11-06T04:13:18.571Z,2.80
2022-11-06T04:16:12.288Z,2.80
2022-11-06T04:18:44.466Z,2.70
2022-11-06T04:21:38.862Z,2.70
2022-11-06T04:25:06.519Z,2.70
2022-11-06T04:28:13.495Z,2.70
2022-11-06T04:31:33.355Z,2.80
2022-11-06T04:34:45.815Z,2.70
2022-11-06T04:37:41.501Z,2.80
2022-11-06T04:40:51.960Z,2.70
2022-11-06T04:43:43.376Z,2.70
2022-11-06T04:46:28.469Z,2.70
2022-11-06T04:49:07.479Z,2.70
2022-11-06T04:51:54.130Z,2.70
2022-11-06T04:54:27.158Z,2.70
2022-11-06T04:57:00.533Z,2.70
2022-11-06T04:59:36.918Z,2.70
2022-11-06T05:02:09.943Z,2.60
2022-11-06T05:04:42.006Z,2.60
2022-11-06T05:07:15.158Z,2.60
2022-11-06T05:09:47.153Z,2.60
2022-11-06T05:12:19.386Z,2.60
2022-11-06T05:14:52.456Z,2.60
2022-11-06T05:17:24.464Z,2.60
2022-11-06T05:19:56.384Z,2.60
2022-11-06T05:23:00.475Z,2.60
2022-11-06T05:25:34.887Z,2.60
2022-11-06T05:28:09.706Z,2.50
2022-11-06T05:30:41.749Z,2.50
2022-11-06T05:33:15.866Z,2.50
2022-11-06T05:35:47.856Z,2.50
2022-11-06T05:38:20.495Z,2.40
2022-11-06T05:40:52.445Z,2.40
2022-11-06T05:43:24.519Z,2.30
2022-11-06T05:45:56.688Z,2.30
2022-11-06T05:48:29.154Z,2.20
2022-11-06T05:51:03.154Z,2.20
2022-11-06T05:53:37.610Z,2.10
2022-11-06T05:56:09.628Z,2.10
2022-11-06T05:58:41.791Z,2.00
2022-11-06T06:01:13.778Z,2.00
2022-11-06T06:03:45.890Z,2.10
2022-11-06T06:06:19.102Z,2.10
2022-11-06T06:08:51.492Z,2.10
2022-11-06T06:11:23.379Z,2.10
2022-11-06T06:13:55.337Z,2.10
2022-11-06T06:16:27.332Z,2.10
2022-11-06T06:18:59.295Z,2.00
2022-11-06T06:21:31.515Z,2.00
2022-11-06T06:24:04.528Z,2.00
2022-11-06T06:26:37.317Z,1.90
2022-11-06T06:29:09.267Z,1.90
2022-11-06T06:31:41.386Z,1.80
2022-11-06T06:34:13.300Z,1.80
2022-11-06T06:36:45.425Z,1.90
2022-11-06T06:39:24.844Z,1.90
2022-11-06T06:41:56.815Z,1.90
2022-11-06T06:44:29.494Z,2.00
2022-11-06T06:47:01.408Z,2.00
2022-11-06T06:49:33.428Z,2.10
2022-11-06T06:52:06.468Z,2.10
2022-11-06T06:54:38.658Z,2.20
2022-11-06T06:57:10.807Z,2.20
2022-11-06T06:59:42.883Z,2.30
2022-11-06T07:02:14.872Z,2.40
2022-11-06T07:04:57.084Z,2.40
2022-11-06T07:07:29.088Z,2.50
2022-11-06T07:10:00.987Z,2.60
2022-11-06T07:12:33.035Z,2.70
2022-11-06T07:15:05.721Z,2.80
2022-11-06T07:17:38.715Z,2.90
2022-11-06T07:20:11.389Z,3.00
2022-11-06T07:22:43.309Z,3.10
2022-11-06T07:25:15.302Z,3.10
2022-11-06T07:27:47.295Z,3.10
2022-11-06T07:30:19.301Z,3.10
2022-11-06T07:32:51.392Z,3.10
2022-11-06T07:35:23.548Z,3.10
2022-11-06T07:37:55.855Z,3.10
2022-11-06T07:40:28.052Z,3.10
2022-11-06T07:43:08.431Z,3.10
2022-11-06T07:45:41.811Z,3.10
2022-11-06T07:48:14.085Z,3.10
2022-11-06T07:50:46.414Z,3.10
2022-11-06T07:53:19.391Z,3.10
2022-11-06T07:55:53.717Z,3.10
2022-11-06T07:58:27.778Z,3.10
2022-11-06T08:00:59.987Z,3.10
2022-11-06T08:03:32.256Z,3.10
2022-11-06T08:06:05.515Z,3.10
2022-11-06T08:08:37.841Z,3.20
2022-11-06T08:11:11.294Z,3.20
2022-11-06T08:13:44.138Z,3.30
2022-11-06T08:16:16.209Z,3.30
2022-11-06T08:18:48.200Z,3.30
2022-11-06T08:21:49.206Z,3.30
2022-11-06T08:24:22.302Z,3.40
2022-11-06T08:26:54.519Z,3.30
2022-11-06T08:29:26.816Z,3.40
2022-11-06T08:31:59.175Z,3.50
2022-11-06T08:34:31.177Z,3.50
2022-11-06T08:37:05.547Z,3.60
2022-11-06T08:39:37.840Z,3.60
2022-11-06T08:42:09.994Z,3.70
2022-11-06T08:44:42.993Z,3.70
2022-11-06T08:47:14.966Z,3.80
2022-11-06T08:49:47.441Z,3.90
2022-11-06T08:52:19.549Z,3.90
2022-11-06T08:54:51.744Z,4.00
2022-11-06T08:57:23.800Z,4.10
2022-11-06T08:59:56.057Z,4.20
2022-11-06T09:02:28.152Z,4.30
2022-11-06T09:05:00.218Z,4.40
2022-11-06T09:07:32.289Z,4.60
2022-11-06T09:10:04.703Z,4.70
2022-11-06T09:12:37.074Z,4.80
2022-11-06T09:15:09.562Z,4.90
2022-11-06T09:17:49.447Z,5.00
2022-11-06T09:20:26.238Z,5.10
2022-11-06T09:23:04.588Z,5.20
2022-11-06T09:25:37.867Z,5.30
2022-11-06T09:28:09.936Z,5.50
2022-11-06T09:30:41.938Z,5.60
2022-11-06T09:33:15.328Z,5.70
2022-11-06T09:35:47.522Z,5.80
2022-11-06T09:38:19.670Z,6.00
2022-11-06T09:40:58.200Z,6.00
2022-11-06T09:44:04.805Z,6.10
2022-11-06T09:47:00.388Z,6.20
2022-11-06T09:49:53.647Z,6.40
2022-11-06T09:53:23.635Z,6.50
2022-11-06T09:56:05.965Z,6.60
2022-11-06T09:58:44.666Z,6.80
2022-11-06T10:01:27.126Z,6.90
2022-11-06T10:04:45.010Z,7.00
2022-11-06T10:07:36.791Z,7.20
2022-11-06T10:10:17.686Z,7.30
2022-11-06T10:13:26.019Z,7.50
2022-11-06T10:16:27.015Z,7.60
2022-11-06T10:19:37.679Z,7.80
2022-11-06T10:22:41.204Z,7.90
2022-11-06T10:25:59.130Z,8.00
2022-11-06T10:28:53.808Z,8.10
2022-11-06T10:32:01.051Z,8.20
2022-11-06T10:35:20.994Z,8.30
2022-11-06T10:38:15.926Z,8.40
2022-11-06T10:40:55.689Z,8.50
2022-11-06T10:43:40.361Z,8.60
2022-11-06T10:46:33.667Z,8.70
2022-11-06T10:49:35.399Z,8.70
2022-11-06T10:52:57.423Z,8.80
2022-11-06T10:55:47.098Z,8.80
2022-11-06T10:58:39.114Z,8.80
2022-11-06T11:01:14.878Z,8.80
2022-11-06T11:03:47.795Z,8.80
2022-11-06T11:06:21.871Z,8.80
2022-11-06T11:08:54.226Z,8.80
2022-11-06T11:11:28.529Z,8.80
2022-11-06T11:14:00.734Z,8.90
2022-11-06T11:16:54.792Z,8.90
2022-11-06T11:19:41.245Z,8.90
2022-11-06T11:22:20.361Z,8.90
2022-11-06T11:25:07.778Z,8.90
2022-11-06T11:27:55.504Z,9.00
2022-11-06T11:30:29.556Z,9.10
2022-11-06T11:33:13.150Z,9.10
2022-11-06T11:35:49.827Z,9.20
2022-11-06T11:38:26.216Z,9.30
2022-11-06T11:41:22.853Z,9.40
2022-11-06T11:44:06.242Z,9.50
2022-11-06T11:46:51.563Z,9.60
2022-11-06T11:49:35.329Z,9.70
2022-11-06T11:52:13.645Z,9.80
2022-11-06T11:54:54.363Z,9.90
2022-11-06T11:57:27.270Z,10.00
2022-11-06T12:00:20.393Z,10.10
2022-11-06T12:02:58.973Z,10.20
2022-11-06T12:05:40.912Z,10.30
2022-11-06T12:08:21.942Z,10.40
2022-11-06T12:11:06.127Z,10.40
2022-11-06T12:13:38.403Z,10.60
2022-11-06T12:16:18.047Z,10.60
2022-11-06T12:18:58.652Z,10.80
2022-11-06T12:21:40.225Z,10.90
2022-11-06T12:24:43.334Z,10.90
2022-11-06T12:27:41.339Z,11.00
2022-11-06T12:30:19.818Z,11.00
2022-11-06T12:33:03.202Z,11.10
2022-11-06T12:35:47.230Z,11.20
2022-11-06T12:38:46.402Z,11.20
2022-11-06T12:41:39.079Z,11.10
2022-11-06T12:44:30.836Z,11.00
2022-11-06T12:47:33.815Z,11.00
2022-11-06T12:50:46.814Z,10.90
2022-11-06T12:53:37.421Z,10.90
2022-11-06T12:56:35.124Z,10.80
2022-11-06T12:59:59.873Z,10.80
2022-11-06T13:02:58.337Z,10.70
2022-11-06T13:06:10.335Z,10.60
2022-11-06T13:09:49.194Z,10.50
2022-11-06T13:12:59.757Z,10.60
2022-11-06T13:15:54.372Z,10.70
2022-11-06T13:18:53.463Z,10.80
2022-11-06T13:21:55.077Z,10.80
2022-11-06T13:24:58.850Z,10.90
2022-11-06T13:28:17.027Z,10.90
2022-11-06T13:31:02.142Z,10.90
2022-11-06T13:33:44.727Z,10.90
2022-11-06T13:36:23.602Z,10.90
2022-11-06T13:39:05.108Z,10.80
2022-11-06T13:41:57.974Z,10.80
2022-11-06T13:44:32.316Z,10.80
2022-11-06T13:47:12.837Z,10.80
2022-11-06T13:50:15.320Z,10.80
2022-11-06T13:53:05.651Z,10.70
2022-11-06T13:56:14.345Z,10.60
2022-11-06T13:59:10.580Z,10.60
2022-11-06T14:02:32.583Z,10.60
2022-11-06T14:05:47.594Z,10.60
2022-11-06T14:08:34.854Z,10.50
2022-11-06T14:11:25.580Z,10.50
2022-11-06T14:14:22.284Z,10.50
2022-11-06T14:17:15.581Z,10.40
2022-11-06T14:19:54.645Z,10.40
2022-11-06T14:22:46.830Z,10.40
2022-11-06T14:25:28.465Z,10.30
2022-11-06T14:28:33.755Z,10.30
2022-11-06T14:31:14.022Z,10.30
2022-11-06T14:34:28.346Z,10.30
2022-11-06T14:41:35.742Z,10.20
2022-11-06T14:44:33.574Z,10.20
2022-11-06T14:47:30.568Z,10.10
2022-11-06T14:50:24.952Z,10.10
2022-11-06T14:53:18.113Z,10.00
2022-11-06T14:56:06.396Z,9.90
2022-11-06T14:58:49.017Z,9.90
2022-11-06T15:01:32.396Z,9.90
2022-11-06T15:04:15.597Z,9.90
2022-11-06T15:06:52.143Z,9.80
2022-11-06T15:09:24.699Z,9.80
2022-11-06T15:12:15.935Z,9.80
2022-11-06T15:14:48.368Z,9.70
2022-11-06T15:17:27.297Z,9.70
2022-11-06T15:20:14.321Z,9.70
2022-11-06T15:22:59.526Z,9.60
2022-11-06T15:26:04.918Z,9.60
2022-11-06T15:29:04.460Z,9.60
2022-11-06T15:32:03.228Z,9.50
2022-11-06T15:35:04.181Z,9.40
2022-11-06T15:37:46.844Z,9.40
2022-11-06T15:40:40.450Z,9.30
2022-11-06T15:43:35.870Z,9.20
2022-11-06T15:46:12.989Z,9.10
2022-11-06T15:49:16.194Z,9.10
2022-11-06T15:52:02.268Z,9.00
2022-11-06T15:59:34.190Z,8.80
2022-11-06T16:02:18.002Z,8.70
2022-11-06T16:04:52.485Z,8.70
2022-11-06T16:07:26.772Z,8.60
2022-11-06T16:10:00.808Z,8.60
2022-11-06T16:12:34.432Z,8.60
2022-11-06T16:15:27.257Z,8.60
2022-11-06T16:18:32.314Z,8.50
2022-11-06T16:21:19.088Z,8.50
2022-11-06T16:24:04.785Z,8.50
2022-11-06T16:26:50.842Z,8.50
2022-11-06T16:29:29.115Z,8.50
2022-11-06T16:32:15.500Z,8.50
2022-11-06T16:34:52.054Z,8.50
2022-11-06T16:37:30.296Z,8.40
2022-11-06T16:40:25.200Z,8.40
2022-11-06T16:43:20.484Z,8.40
2022-11-06T16:45:59.079Z,8.40
2022-11-06T16:48:39.266Z,8.40
2022-11-06T16:51:24.194Z,8.40
2022-11-06T16:54:06.352Z,8.40
2022-11-06T16:56:48.324Z,8.40
2022-11-06T16:59:26.785Z,8.40
2022-11-06T17:02:00.334Z,8.40
2022-11-06T17:04:33.863Z,8.40
2022-11-06T17:07:06.695Z,8.30
2022-11-06T17:09:51.416Z,8.30
2022-11-06T17:12:24.162Z,8.30
2022-11-06T17:14:57.136Z,8.40
2022-11-06T17:17:32.744Z,8.40
2022-11-06T17:20:19.842Z,8.40
2022-11-06T17:22:52.877Z,8.40
2022-11-06T17:25:25.540Z,8.40
2022-11-06T17:27:59.030Z,8.40
2022-11-06T17:30:31.937Z,8.40
2022-11-06T17:33:04.925Z,8.40
2022-11-06T17:35:40.948Z,8.40
2022-11-06T17:38:20.268Z,8.40
2022-11-06T17:40:53.622Z,8.40
2022-11-06T17:43:27.066Z,8.50
2022-11-06T17:45:59.950Z,8.40
2022-11-06T17:48:37.052Z,8.40
2022-11-06T17:51:29.203Z,8.40
2022-11-06T17:54:28.285Z,8.40
2022-11-06T17:57:07.211Z,8.40
2022-11-06T17:59:40.290Z,8.40
2022-11-06T18:02:34.953Z,8.40
2022-11-06T18:05:10.486Z,8.40
2022-11-06T18:07:43.565Z,8.30
2022-11-06T18:10:16.498Z,8.40
2022-11-06T18:12:52.168Z,8.40
2022-11-06T18:15:25.280Z,8.30
2022-11-06T18:17:58.573Z,8.30
2022-11-06T18:20:31.539Z,8.30
2022-11-06T18:23:06.848Z,8.30
2022-11-06T18:25:40.568Z,8.30
2022-11-06T18:28:13.969Z,8.30
2022-11-06T18:30:47.550Z,8.30
2022-11-06T18:33:21.879Z,8.30
2022-11-06T18:36:02.219Z,8.30
2022-11-06T18:38:39.644Z,8.40
2022-11-06T18:41:19.738Z,8.40
2022-11-06T18:43:58.425Z,8.40
2022-11-06T18:46:31.568Z,8.40
2022-11-06T18:49:05.393Z,8.40
2022-11-06T18:51:41.379Z,8.30
2022-11-06T18:54:15.072Z,8.40
2022-11-06T18:56:47.762Z,8.40
2022-11-06T18:59:20.685Z,8.40
2022-11-06T19:01:55.102Z,8.40
2022-11-06T19:04:28.233Z,8.40
2022-11-06T19:07:00.971Z,8.40
2022-11-06T19:09:33.680Z,8.40
2022-11-06T19:12:07.095Z,8.40
2022-11-06T19:14:40.478Z,8.40
2022-11-06T19:17:13.273Z,8.50
2022-11-06T19:19:47.226Z,8.40
2022-11-06T19:22:20.112Z,8.50
2022-11-06T19:24:53.748Z,8.50
2022-11-06T19:27:26.598Z,8.50
2022-11-06T19:30:00.977Z,8.50
2022-11-06T19:32:35.301Z,8.60
2022-11-06T19:35:14.027Z,8.60
2022-11-06T19:37:49.786Z,8.60
2022-11-06T19:40:24.328Z,8.60
2022-11-06T19:43:04.147Z,8.60
2022-11-06T19:45:39.551Z,8.60
2022-11-06T19:48:19.287Z,8.70
2022-11-06T19:50:59.615Z,8.70
2022-11-06T19:53:36.366Z,8.70
2022-11-06T19:56:20.212Z,8.70
2022-11-06T19:58:55.201Z,8.70
2022-11-06T20:01:34.763Z,8.70
2022-11-06T20:04:10.696Z,8.70
2022-11-06T20:06:44.421Z,8.70
2022-11-06T20:09:21.507Z,8.70
2022-11-06T20:11:54.786Z,8.70
2022-11-06T20:14:29.993Z,8.70
2022-11-06T20:17:05.108Z,8.60
2022-11-06T20:19:38.251Z,8.60
2022-11-06T20:22:25.285Z,8.60
2022-11-06T20:24:58.137Z,8.60
2022-11-06T20:27:31.576Z,8.60
2022-11-06T20:30:06.565Z,8.60
2022-11-06T20:32:40.701Z,8.50
2022-11-06T20:35:16.846Z,8.50
2022-11-06T20:37:54.012Z,8.50
2022-11-06T20:40:31.892Z,8.50
2022-11-06T20:43:07.116Z,8.60
2022-11-06T20:45:40.391Z,8.60
2022-11-06T20:48:16.556Z,8.60
2022-11-06T20:51:01.039Z,8.60
2022-11-06T20:53:39.825Z,8.60
2022-11-06T20:56:20.172Z,8.60
2022-11-06T20:58:55.878Z,8.50
2022-11-06T21:01:30.213Z,8.50
2022-11-06T21:04:03.011Z,8.40
2022-11-06T21:06:38.942Z,8.40
2022-11-06T21:09:11.683Z,8.40
2022-11-06T21:11:44.622Z,8.40
2022-11-06T21:14:17.612Z,8.40
2022-11-06T21:16:50.247Z,8.50
2022-11-06T21:19:24.015Z,8.50
2022-11-06T21:21:58.253Z,8.60
2022-11-06T21:24:30.925Z,8.70
2022-11-06T21:27:03.506Z,8.70
2022-11-06T21:29:36.570Z,8.80
2022-11-06T21:32:09.519Z,8.80
2022-11-06T21:34:42.124Z,8.90
2022-11-06T21:37:14.515Z,9.00
2022-11-06T21:39:46.895Z,9.10
2022-11-06T21:42:19.173Z,9.20
2022-11-06T21:44:51.658Z,9.20
2022-11-06T21:47:24.344Z,9.30
2022-11-06T21:49:56.931Z,9.40
2022-11-06T21:52:49.763Z,9.40
2022-11-06T21:56:01.165Z,9.50
2022-11-06T21:58:37.733Z,9.60
2022-11-06T22:01:10.726Z,9.70
2022-11-06T22:03:43.144Z,9.80
2022-11-06T22:06:20.793Z,9.80
2022-11-06T22:08:56.562Z,10.00
2022-11-06T22:11:36.710Z,10.00
2022-11-06T22:14:14.561Z,10.10
2022-11-06T22:16:48.090Z,10.20
2022-11-06T22:19:20.751Z,10.20
2022-11-06T22:21:54.666Z,10.30
2022-11-06T22:24:27.096Z,10.30
2022-11-06T22:26:59.280Z,10.40
2022-11-06T22:29:31.552Z,10.50
2022-11-06T22:32:03.709Z,10.50
2022-11-06T22:34:36.188Z,10.60
2022-11-06T22:37:08.339Z,10.60
2022-11-06T22:40:11.676Z,10.60
2022-11-06T22:42:47.180Z,10.60
2022-11-06T22:45:21.477Z,10.60
2022-11-06T22:47:58.933Z,10.60
2022-11-06T22:50:31.046Z,10.70
2022-11-06T22:53:04.995Z,10.70
2022-11-06T22:55:37.160Z,10.70
2022-11-06T22:58:11.388Z,10.60
2022-11-06T23:00:43.424Z,10.60
2022-11-06T23:03:16.158Z,10.60
2022-11-06T23:05:49.535Z,10.50
2022-11-06T23:08:57.687Z,10.50
2022-11-06T23:11:30.232Z,10.50
2022-11-06T23:14:08.360Z,10.50
2022-11-06T23:17:00.578Z,10.50
2022-11-06T23:19:35.397Z,10.50
2022-11-06T23:22:26.353Z,10.40
2022-11-06T23:25:14.836Z,10.40
2022-11-06T23:27:50.041Z,10.30
2022-11-06T23:30:22.505Z,10.30
2022-11-06T23:32:54.563Z,10.30
2022-11-06T23:35:32.086Z,10.20
2022-11-06T23:38:04.685Z,10.20
2022-11-06T23:40:36.771Z,10.20
2022-11-06T23:43:08.917Z,10.20
2022-11-06T23:45:51.378Z,10.20
2022-11-06T23:48:23.586Z,10.20
2022-11-06T23:51:00.047Z,10.20
2022-11-06T23:53:32.284Z,10.20
2022-11-06T23:56:12.383Z,10.20
2022-11-06T23:58:52.991Z,10.20
